sensor_id;sensor_type;location;lat;lon;timestamp;P1;durP1;ratioP1;P2;durP2;ratioP2
45198;SDS011;30941;46.422;18.772;2024-03-06T00:02:05;54.80;;;30.23;;
45198;SDS011;30941;46.422;18.772;2024-03-06T00:04:30;49.83;;;28.35;;
45198;SDS011;30941;46.422;18.772;2024-03-06T00:06:56;54.70;;;28.05;;
45198;SDS011;30941;46.422;18.772;2024-03-06T00:09:22;50.53;;;29.92;;
45198;SDS011;30941;46.422;18.772;2024-03-06T00:11:48;51.25;;;30.15;;
45198;SDS011;30941;46.422;18.772;2024-03-06T00:14:16;51.95;;;29.65;;
45198;SDS011;30941;46.422;18.772;2024-03-06T00:16:42;56.63;;;32.08;;
45198;SDS011;30941;46.422;18.772;2024-03-06T00:19:08;50.42;;;29.33;;
45198;SDS011;30941;46.422;18.772;2024-03-06T00:21:33;52.38;;;30.35;;
45198;SDS011;30941;46.422;18.772;2024-03-06T00:23:58;55.20;;;30.38;;
45198;SDS011;30941;46.422;18.772;2024-03-06T00:26:24;54.38;;;30.85;;
45198;SDS011;30941;46.422;18.772;2024-03-06T00:28:49;53.58;;;31.00;;
45198;SDS011;30941;46.422;18.772;2024-03-06T00:31:14;53.58;;;30.00;;
45198;SDS011;30941;46.422;18.772;2024-03-06T00:33:40;55.65;;;31.27;;
45198;SDS011;30941;46.422;18.772;2024-03-06T00:36:05;55.30;;;30.88;;
45198;SDS011;30941;46.422;18.772;2024-03-06T00:38:31;61.50;;;31.10;;
45198;SDS011;30941;46.422;18.772;2024-03-06T00:40:57;55.80;;;31.60;;
45198;SDS011;30941;46.422;18.772;2024-03-06T00:43:22;56.92;;;30.98;;
45198;SDS011;30941;46.422;18.772;2024-03-06T00:45:48;55.00;;;29.90;;
45198;SDS011;30941;46.422;18.772;2024-03-06T00:48:13;54.83;;;30.40;;
45198;SDS011;30941;46.422;18.772;2024-03-06T00:50:39;55.55;;;29.75;;
45198;SDS011;30941;46.422;18.772;2024-03-06T00:53:05;57.67;;;30.92;;
45198;SDS011;30941;46.422;18.772;2024-03-06T00:55:31;54.28;;;30.80;;
45198;SDS011;30941;46.422;18.772;2024-03-06T00:57:56;55.03;;;29.10;;
45198;SDS011;30941;46.422;18.772;2024-03-06T01:00:21;60.55;;;31.23;;
45198;SDS011;30941;46.422;18.772;2024-03-06T01:02:47;53.45;;;29.63;;
45198;SDS011;30941;46.422;18.772;2024-03-06T01:05:12;50.13;;;28.92;;
45198;SDS011;30941;46.422;18.772;2024-03-06T01:07:38;52.15;;;30.10;;
45198;SDS011;30941;46.422;18.772;2024-03-06T01:10:04;53.13;;;30.00;;
45198;SDS011;30941;46.422;18.772;2024-03-06T01:12:31;52.67;;;29.75;;
45198;SDS011;30941;46.422;18.772;2024-03-06T01:14:57;57.03;;;30.85;;
45198;SDS011;30941;46.422;18.772;2024-03-06T01:17:22;51.72;;;30.77;;
45198;SDS011;30941;46.422;18.772;2024-03-06T01:19:48;62.72;;;34.05;;
45198;SDS011;30941;46.422;18.772;2024-03-06T01:22:14;60.88;;;34.58;;
45198;SDS011;30941;46.422;18.772;2024-03-06T01:24:40;58.08;;;31.33;;
45198;SDS011;30941;46.422;18.772;2024-03-06T01:27:05;54.50;;;28.92;;
45198;SDS011;30941;46.422;18.772;2024-03-06T01:29:31;51.45;;;30.25;;
45198;SDS011;30941;46.422;18.772;2024-03-06T01:31:57;56.80;;;31.60;;
45198;SDS011;30941;46.422;18.772;2024-03-06T01:34:22;53.92;;;28.98;;
45198;SDS011;30941;46.422;18.772;2024-03-06T01:36:48;51.88;;;29.05;;
45198;SDS011;30941;46.422;18.772;2024-03-06T01:39:13;48.17;;;28.58;;
45198;SDS011;30941;46.422;18.772;2024-03-06T01:41:48;51.78;;;29.55;;
45198;SDS011;30941;46.422;18.772;2024-03-06T01:44:14;51.03;;;28.40;;
45198;SDS011;30941;46.422;18.772;2024-03-06T01:46:40;47.55;;;27.52;;
45198;SDS011;30941;46.422;18.772;2024-03-06T01:49:06;54.17;;;29.00;;
45198;SDS011;30941;46.422;18.772;2024-03-06T01:51:32;57.85;;;30.50;;
45198;SDS011;30941;46.422;18.772;2024-03-06T01:53:58;51.22;;;29.42;;
45198;SDS011;30941;46.422;18.772;2024-03-06T01:56:26;51.75;;;28.27;;
45198;SDS011;30941;46.422;18.772;2024-03-06T01:58:52;52.67;;;28.55;;
45198;SDS011;30941;46.422;18.772;2024-03-06T02:01:19;46.28;;;27.10;;
45198;SDS011;30941;46.422;18.772;2024-03-06T02:03:45;53.30;;;28.48;;
45198;SDS011;30941;46.422;18.772;2024-03-06T02:06:11;57.88;;;30.13;;
45198;SDS011;30941;46.422;18.772;2024-03-06T02:08:37;55.00;;;30.33;;
45198;SDS011;30941;46.422;18.772;2024-03-06T02:11:02;51.92;;;28.45;;
45198;SDS011;30941;46.422;18.772;2024-03-06T02:13:28;50.88;;;27.65;;
45198;SDS011;30941;46.422;18.772;2024-03-06T02:15:53;48.72;;;26.85;;
45198;SDS011;30941;46.422;18.772;2024-03-06T02:18:18;50.50;;;28.77;;
45198;SDS011;30941;46.422;18.772;2024-03-06T02:20:44;47.20;;;25.92;;
45198;SDS011;30941;46.422;18.772;2024-03-06T02:23:10;47.50;;;26.40;;
45198;SDS011;30941;46.422;18.772;2024-03-06T02:25:36;52.20;;;26.70;;
45198;SDS011;30941;46.422;18.772;2024-03-06T02:28:01;49.58;;;26.67;;
45198;SDS011;30941;46.422;18.772;2024-03-06T02:30:26;46.70;;;26.15;;
45198;SDS011;30941;46.422;18.772;2024-03-06T02:32:52;46.17;;;25.20;;
45198;SDS011;30941;46.422;18.772;2024-03-06T02:35:17;40.63;;;24.60;;
45198;SDS011;30941;46.422;18.772;2024-03-06T02:37:43;49.78;;;26.02;;
45198;SDS011;30941;46.422;18.772;2024-03-06T02:40:09;47.15;;;26.08;;
45198;SDS011;30941;46.422;18.772;2024-03-06T02:42:35;45.42;;;24.83;;
45198;SDS011;30941;46.422;18.772;2024-03-06T02:45:04;44.78;;;25.33;;
45198;SDS011;30941;46.422;18.772;2024-03-06T02:47:30;47.80;;;25.58;;
45198;SDS011;30941;46.422;18.772;2024-03-06T02:49:56;47.83;;;26.58;;
45198;SDS011;30941;46.422;18.772;2024-03-06T02:52:21;45.95;;;23.83;;
45198;SDS011;30941;46.422;18.772;2024-03-06T02:54:47;41.30;;;23.95;;
45198;SDS011;30941;46.422;18.772;2024-03-06T02:57:12;46.40;;;25.17;;
45198;SDS011;30941;46.422;18.772;2024-03-06T02:59:39;44.95;;;24.40;;
45198;SDS011;30941;46.422;18.772;2024-03-06T03:02:05;42.58;;;24.83;;
45198;SDS011;30941;46.422;18.772;2024-03-06T03:04:30;40.20;;;23.90;;
45198;SDS011;30941;46.422;18.772;2024-03-06T03:06:56;45.08;;;24.42;;
45198;SDS011;30941;46.422;18.772;2024-03-06T03:09:22;41.92;;;24.15;;
45198;SDS011;30941;46.422;18.772;2024-03-06T03:11:48;40.00;;;23.55;;
45198;SDS011;30941;46.422;18.772;2024-03-06T03:14:13;41.15;;;25.17;;
45198;SDS011;30941;46.422;18.772;2024-03-06T03:16:39;43.95;;;22.98;;
45198;SDS011;30941;46.422;18.772;2024-03-06T03:19:04;40.42;;;22.90;;
45198;SDS011;30941;46.422;18.772;2024-03-06T03:21:30;40.90;;;24.20;;
45198;SDS011;30941;46.422;18.772;2024-03-06T03:23:55;44.58;;;24.98;;
45198;SDS011;30941;46.422;18.772;2024-03-06T03:26:21;39.03;;;23.33;;
45198;SDS011;30941;46.422;18.772;2024-03-06T03:28:46;42.80;;;24.70;;
45198;SDS011;30941;46.422;18.772;2024-03-06T03:31:11;47.30;;;23.25;;
45198;SDS011;30941;46.422;18.772;2024-03-06T03:33:40;41.85;;;24.55;;
45198;SDS011;30941;46.422;18.772;2024-03-06T03:36:06;41.70;;;22.08;;
45198;SDS011;30941;46.422;18.772;2024-03-06T03:38:32;46.30;;;24.60;;
45198;SDS011;30941;46.422;18.772;2024-03-06T03:41:00;43.80;;;24.23;;
45198;SDS011;30941;46.422;18.772;2024-03-06T03:43:26;45.63;;;23.95;;
45198;SDS011;30941;46.422;18.772;2024-03-06T03:45:51;43.33;;;24.45;;
45198;SDS011;30941;46.422;18.772;2024-03-06T03:48:17;39.90;;;23.13;;
45198;SDS011;30941;46.422;18.772;2024-03-06T03:50:42;43.15;;;23.35;;
45198;SDS011;30941;46.422;18.772;2024-03-06T03:53:08;40.90;;;23.30;;
45198;SDS011;30941;46.422;18.772;2024-03-06T03:55:33;44.05;;;23.55;;
45198;SDS011;30941;46.422;18.772;2024-03-06T03:57:58;40.83;;;22.95;;
45198;SDS011;30941;46.422;18.772;2024-03-06T04:00:24;37.40;;;21.40;;
45198;SDS011;30941;46.422;18.772;2024-03-06T04:02:49;40.97;;;23.20;;
45198;SDS011;30941;46.422;18.772;2024-03-06T04:05:14;40.53;;;23.45;;
45198;SDS011;30941;46.422;18.772;2024-03-06T04:07:40;40.08;;;22.52;;
45198;SDS011;30941;46.422;18.772;2024-03-06T04:10:05;40.50;;;21.80;;
45198;SDS011;30941;46.422;18.772;2024-03-06T04:12:31;40.92;;;22.00;;
45198;SDS011;30941;46.422;18.772;2024-03-06T04:14:57;42.83;;;23.33;;
45198;SDS011;30941;46.422;18.772;2024-03-06T04:17:22;46.72;;;23.27;;
45198;SDS011;30941;46.422;18.772;2024-03-06T04:19:48;41.33;;;23.40;;
45198;SDS011;30941;46.422;18.772;2024-03-06T04:22:13;44.75;;;23.95;;
45198;SDS011;30941;46.422;18.772;2024-03-06T04:24:42;44.88;;;23.52;;
45198;SDS011;30941;46.422;18.772;2024-03-06T04:27:08;44.65;;;24.48;;
45198;SDS011;30941;46.422;18.772;2024-03-06T04:29:34;40.97;;;23.52;;
45198;SDS011;30941;46.422;18.772;2024-03-06T04:32:00;43.17;;;22.45;;
45198;SDS011;30941;46.422;18.772;2024-03-06T04:34:26;43.33;;;23.67;;
45198;SDS011;30941;46.422;18.772;2024-03-06T04:36:51;49.03;;;24.73;;
45198;SDS011;30941;46.422;18.772;2024-03-06T04:39:16;38.95;;;22.38;;
45198;SDS011;30941;46.422;18.772;2024-03-06T04:41:42;39.08;;;21.27;;
45198;SDS011;30941;46.422;18.772;2024-03-06T04:44:07;36.25;;;20.67;;
45198;SDS011;30941;46.422;18.772;2024-03-06T04:46:32;39.42;;;21.50;;
45198;SDS011;30941;46.422;18.772;2024-03-06T04:48:58;38.50;;;22.35;;
45198;SDS011;30941;46.422;18.772;2024-03-06T04:51:23;39.33;;;22.00;;
45198;SDS011;30941;46.422;18.772;2024-03-06T04:53:49;38.72;;;21.42;;
45198;SDS011;30941;46.422;18.772;2024-03-06T04:56:14;40.83;;;23.33;;
45198;SDS011;30941;46.422;18.772;2024-03-06T04:58:41;37.70;;;21.45;;
45198;SDS011;30941;46.422;18.772;2024-03-06T05:01:06;35.65;;;20.73;;
45198;SDS011;30941;46.422;18.772;2024-03-06T05:03:31;40.92;;;22.73;;
45198;SDS011;30941;46.422;18.772;2024-03-06T05:05:57;41.50;;;22.85;;
45198;SDS011;30941;46.422;18.772;2024-03-06T05:08:22;43.40;;;24.33;;
45198;SDS011;30941;46.422;18.772;2024-03-06T05:10:48;41.47;;;23.05;;
45198;SDS011;30941;46.422;18.772;2024-03-06T05:13:13;41.95;;;23.25;;
45198;SDS011;30941;46.422;18.772;2024-03-06T05:15:38;40.20;;;22.27;;
45198;SDS011;30941;46.422;18.772;2024-03-06T05:18:04;40.75;;;22.00;;
45198;SDS011;30941;46.422;18.772;2024-03-06T05:20:30;41.80;;;22.52;;
45198;SDS011;30941;46.422;18.772;2024-03-06T05:22:58;41.63;;;22.08;;
45198;SDS011;30941;46.422;18.772;2024-03-06T05:25:24;46.20;;;25.30;;
45198;SDS011;30941;46.422;18.772;2024-03-06T05:27:49;42.50;;;22.80;;
45198;SDS011;30941;46.422;18.772;2024-03-06T05:30:15;39.38;;;21.50;;
45198;SDS011;30941;46.422;18.772;2024-03-06T05:32:40;42.17;;;22.77;;
45198;SDS011;30941;46.422;18.772;2024-03-06T05:35:09;43.17;;;22.15;;
45198;SDS011;30941;46.422;18.772;2024-03-06T05:37:35;47.22;;;23.60;;
45198;SDS011;30941;46.422;18.772;2024-03-06T05:40:01;43.35;;;22.42;;
45198;SDS011;30941;46.422;18.772;2024-03-06T05:42:29;40.50;;;22.48;;
45198;SDS011;30941;46.422;18.772;2024-03-06T05:44:55;44.60;;;22.98;;
45198;SDS011;30941;46.422;18.772;2024-03-06T05:47:25;42.00;;;23.02;;
45198;SDS011;30941;46.422;18.772;2024-03-06T05:49:51;41.08;;;23.50;;
45198;SDS011;30941;46.422;18.772;2024-03-06T05:52:16;45.92;;;23.70;;
45198;SDS011;30941;46.422;18.772;2024-03-06T05:54:41;44.60;;;22.80;;
45198;SDS011;30941;46.422;18.772;2024-03-06T05:57:07;43.00;;;22.92;;
45198;SDS011;30941;46.422;18.772;2024-03-06T05:59:32;53.70;;;28.85;;
45198;SDS011;30941;46.422;18.772;2024-03-06T06:01:57;50.05;;;24.70;;
45198;SDS011;30941;46.422;18.772;2024-03-06T06:04:23;44.50;;;23.48;;
45198;SDS011;30941;46.422;18.772;2024-03-06T06:06:48;51.63;;;27.15;;
45198;SDS011;30941;46.422;18.772;2024-03-06T06:09:13;47.63;;;26.08;;
45198;SDS011;30941;46.422;18.772;2024-03-06T06:11:41;48.78;;;25.67;;
45198;SDS011;30941;46.422;18.772;2024-03-06T06:14:09;47.25;;;26.73;;
45198;SDS011;30941;46.422;18.772;2024-03-06T06:16:35;54.85;;;27.23;;
45198;SDS011;30941;46.422;18.772;2024-03-06T06:19:01;45.78;;;24.50;;
45198;SDS011;30941;46.422;18.772;2024-03-06T06:21:27;44.22;;;26.15;;
45198;SDS011;30941;46.422;18.772;2024-03-06T06:23:52;43.80;;;24.98;;
45198;SDS011;30941;46.422;18.772;2024-03-06T06:26:18;45.30;;;24.10;;
45198;SDS011;30941;46.422;18.772;2024-03-06T06:28:43;46.10;;;25.38;;
45198;SDS011;30941;46.422;18.772;2024-03-06T06:31:09;47.35;;;24.85;;
45198;SDS011;30941;46.422;18.772;2024-03-06T06:33:34;46.60;;;23.65;;
45198;SDS011;30941;46.422;18.772;2024-03-06T06:35:59;45.75;;;24.95;;
45198;SDS011;30941;46.422;18.772;2024-03-06T06:38:25;47.63;;;24.05;;
45198;SDS011;30941;46.422;18.772;2024-03-06T06:40:50;46.45;;;24.50;;
45198;SDS011;30941;46.422;18.772;2024-03-06T06:43:15;42.03;;;25.02;;
45198;SDS011;30941;46.422;18.772;2024-03-06T06:45:41;47.17;;;25.60;;
45198;SDS011;30941;46.422;18.772;2024-03-06T06:48:06;46.85;;;26.08;;
45198;SDS011;30941;46.422;18.772;2024-03-06T06:50:34;48.28;;;25.88;;
45198;SDS011;30941;46.422;18.772;2024-03-06T06:52:59;50.05;;;26.40;;
45198;SDS011;30941;46.422;18.772;2024-03-06T06:55:25;47.25;;;26.05;;
45198;SDS011;30941;46.422;18.772;2024-03-06T06:57:50;45.25;;;26.67;;
45198;SDS011;30941;46.422;18.772;2024-03-06T07:00:16;46.75;;;25.92;;
45198;SDS011;30941;46.422;18.772;2024-03-06T07:02:43;46.45;;;26.45;;
45198;SDS011;30941;46.422;18.772;2024-03-06T07:05:10;49.67;;;28.00;;
45198;SDS011;30941;46.422;18.772;2024-03-06T07:07:36;53.92;;;30.10;;
45198;SDS011;30941;46.422;18.772;2024-03-06T07:10:02;50.25;;;28.25;;
45198;SDS011;30941;46.422;18.772;2024-03-06T07:12:28;50.85;;;29.08;;
45198;SDS011;30941;46.422;18.772;2024-03-06T07:14:54;59.95;;;29.58;;
45198;SDS011;30941;46.422;18.772;2024-03-06T07:17:19;51.72;;;28.83;;
45198;SDS011;30941;46.422;18.772;2024-03-06T07:19:45;55.97;;;31.20;;
45198;SDS011;30941;46.422;18.772;2024-03-06T07:22:10;59.17;;;31.05;;
45198;SDS011;30941;46.422;18.772;2024-03-06T07:24:35;53.28;;;29.27;;
45198;SDS011;30941;46.422;18.772;2024-03-06T07:27:02;53.00;;;28.88;;
45198;SDS011;30941;46.422;18.772;2024-03-06T07:29:27;53.80;;;29.52;;
45198;SDS011;30941;46.422;18.772;2024-03-06T07:31:53;56.17;;;30.23;;
45198;SDS011;30941;46.422;18.772;2024-03-06T07:34:19;51.67;;;29.95;;
45198;SDS011;30941;46.422;18.772;2024-03-06T07:36:45;53.47;;;30.15;;
45198;SDS011;30941;46.422;18.772;2024-03-06T07:39:11;54.40;;;29.95;;
45198;SDS011;30941;46.422;18.772;2024-03-06T07:41:37;53.50;;;29.95;;
45198;SDS011;30941;46.422;18.772;2024-03-06T07:44:02;50.75;;;30.33;;
45198;SDS011;30941;46.422;18.772;2024-03-06T07:46:28;53.75;;;29.58;;
45198;SDS011;30941;46.422;18.772;2024-03-06T07:48:53;51.08;;;29.35;;
45198;SDS011;30941;46.422;18.772;2024-03-06T07:51:19;49.80;;;29.30;;
45198;SDS011;30941;46.422;18.772;2024-03-06T07:53:45;51.70;;;28.73;;
45198;SDS011;30941;46.422;18.772;2024-03-06T07:56:11;52.90;;;30.27;;
45198;SDS011;30941;46.422;18.772;2024-03-06T07:58:36;46.22;;;28.33;;
45198;SDS011;30941;46.422;18.772;2024-03-06T08:01:02;50.50;;;29.20;;
45198;SDS011;30941;46.422;18.772;2024-03-06T08:03:28;50.38;;;29.25;;
45198;SDS011;30941;46.422;18.772;2024-03-06T08:05:53;50.90;;;29.90;;
45198;SDS011;30941;46.422;18.772;2024-03-06T08:08:19;48.28;;;28.80;;
45198;SDS011;30941;46.422;18.772;2024-03-06T08:10:44;53.83;;;30.20;;
45198;SDS011;30941;46.422;18.772;2024-03-06T08:13:10;52.08;;;29.90;;
45198;SDS011;30941;46.422;18.772;2024-03-06T08:15:36;50.17;;;30.55;;
45198;SDS011;30941;46.422;18.772;2024-03-06T08:18:01;45.92;;;28.35;;
45198;SDS011;30941;46.422;18.772;2024-03-06T08:20:28;47.38;;;28.58;;
45198;SDS011;30941;46.422;18.772;2024-03-06T08:22:54;49.05;;;29.95;;
45198;SDS011;30941;46.422;18.772;2024-03-06T08:25:20;51.15;;;29.33;;
45198;SDS011;30941;46.422;18.772;2024-03-06T08:27:46;49.08;;;28.45;;
45198;SDS011;30941;46.422;18.772;2024-03-06T08:30:11;46.13;;;26.85;;
45198;SDS011;30941;46.422;18.772;2024-03-06T08:32:37;46.75;;;29.20;;
45198;SDS011;30941;46.422;18.772;2024-03-06T08:35:03;48.28;;;28.88;;
45198;SDS011;30941;46.422;18.772;2024-03-06T08:37:32;48.63;;;29.00;;
45198;SDS011;30941;46.422;18.772;2024-03-06T08:39:59;51.40;;;28.80;;
45198;SDS011;30941;46.422;18.772;2024-03-06T08:42:24;47.88;;;28.23;;
45198;SDS011;30941;46.422;18.772;2024-03-06T08:44:50;45.67;;;27.10;;
45198;SDS011;30941;46.422;18.772;2024-03-06T08:47:15;37.97;;;23.05;;
45198;SDS011;30941;46.422;18.772;2024-03-06T08:49:41;39.63;;;24.42;;
45198;SDS011;30941;46.422;18.772;2024-03-06T08:52:06;47.03;;;27.02;;
45198;SDS011;30941;46.422;18.772;2024-03-06T08:54:32;39.83;;;25.50;;
45198;SDS011;30941;46.422;18.772;2024-03-06T08:56:57;41.92;;;25.48;;
45198;SDS011;30941;46.422;18.772;2024-03-06T08:59:24;39.63;;;26.00;;
45198;SDS011;30941;46.422;18.772;2024-03-06T09:01:53;42.80;;;26.70;;
45198;SDS011;30941;46.422;18.772;2024-03-06T09:04:19;46.45;;;26.48;;
45198;SDS011;30941;46.422;18.772;2024-03-06T09:06:44;42.47;;;26.95;;
45198;SDS011;30941;46.422;18.772;2024-03-06T09:09:10;41.30;;;25.52;;
45198;SDS011;30941;46.422;18.772;2024-03-06T09:11:35;43.13;;;26.48;;
45198;SDS011;30941;46.422;18.772;2024-03-06T09:14:00;37.38;;;24.45;;
45198;SDS011;30941;46.422;18.772;2024-03-06T09:16:26;37.55;;;23.40;;
45198;SDS011;30941;46.422;18.772;2024-03-06T09:18:51;33.08;;;20.38;;
45198;SDS011;30941;46.422;18.772;2024-03-06T09:21:17;35.40;;;21.33;;
45198;SDS011;30941;46.422;18.772;2024-03-06T09:23:42;32.10;;;20.35;;
45198;SDS011;30941;46.422;18.772;2024-03-06T09:26:07;36.92;;;21.05;;
45198;SDS011;30941;46.422;18.772;2024-03-06T09:28:33;35.80;;;21.23;;
45198;SDS011;30941;46.422;18.772;2024-03-06T09:30:58;32.47;;;19.55;;
45198;SDS011;30941;46.422;18.772;2024-03-06T09:33:23;31.52;;;19.83;;
45198;SDS011;30941;46.422;18.772;2024-03-06T09:35:49;32.65;;;21.45;;
45198;SDS011;30941;46.422;18.772;2024-03-06T09:38:14;28.25;;;18.77;;
45198;SDS011;30941;46.422;18.772;2024-03-06T09:40:40;27.88;;;17.63;;
45198;SDS011;30941;46.422;18.772;2024-03-06T09:43:08;25.58;;;18.30;;
45198;SDS011;30941;46.422;18.772;2024-03-06T09:45:34;23.15;;;16.13;;
45198;SDS011;30941;46.422;18.772;2024-03-06T09:48:00;23.17;;;16.50;;
45198;SDS011;30941;46.422;18.772;2024-03-06T09:50:26;25.17;;;16.55;;
45198;SDS011;30941;46.422;18.772;2024-03-06T09:52:52;38.55;;;19.08;;
45198;SDS011;30941;46.422;18.772;2024-03-06T09:55:20;24.75;;;15.60;;
45198;SDS011;30941;46.422;18.772;2024-03-06T09:57:46;25.23;;;17.15;;
45198;SDS011;30941;46.422;18.772;2024-03-06T10:00:12;22.17;;;16.35;;
45198;SDS011;30941;46.422;18.772;2024-03-06T10:02:39;21.75;;;14.90;;
45198;SDS011;30941;46.422;18.772;2024-03-06T10:05:20;18.20;;;12.48;;
45198;SDS011;30941;46.422;18.772;2024-03-06T10:07:46;19.60;;;12.68;;
45198;SDS011;30941;46.422;18.772;2024-03-06T10:10:12;18.65;;;14.35;;
45198;SDS011;30941;46.422;18.772;2024-03-06T10:12:38;18.17;;;13.80;;
45198;SDS011;30941;46.422;18.772;2024-03-06T10:15:04;20.40;;;14.63;;
45198;SDS011;30941;46.422;18.772;2024-03-06T10:17:30;18.17;;;12.98;;
45198;SDS011;30941;46.422;18.772;2024-03-06T10:19:55;18.38;;;13.25;;
45198;SDS011;30941;46.422;18.772;2024-03-06T10:22:23;18.35;;;13.55;;
45198;SDS011;30941;46.422;18.772;2024-03-06T10:24:54;18.33;;;12.40;;
45198;SDS011;30941;46.422;18.772;2024-03-06T10:27:21;17.98;;;13.05;;
45198;SDS011;30941;46.422;18.772;2024-03-06T10:29:46;17.50;;;12.50;;
45198;SDS011;30941;46.422;18.772;2024-03-06T10:32:26;15.93;;;13.05;;
45198;SDS011;30941;46.422;18.772;2024-03-06T10:34:51;17.38;;;13.32;;
45198;SDS011;30941;46.422;18.772;2024-03-06T10:37:17;16.17;;;12.48;;
45198;SDS011;30941;46.422;18.772;2024-03-06T10:39:42;16.45;;;12.57;;
45198;SDS011;30941;46.422;18.772;2024-03-06T10:42:09;15.63;;;12.35;;
45198;SDS011;30941;46.422;18.772;2024-03-06T10:44:38;18.02;;;13.18;;
45198;SDS011;30941;46.422;18.772;2024-03-06T10:47:09;19.48;;;13.15;;
45198;SDS011;30941;46.422;18.772;2024-03-06T10:49:34;17.02;;;12.40;;
45198;SDS011;30941;46.422;18.772;2024-03-06T10:52:04;14.75;;;12.07;;
45198;SDS011;30941;46.422;18.772;2024-03-06T10:54:32;18.17;;;13.10;;
45198;SDS011;30941;46.422;18.772;2024-03-06T10:56:59;16.65;;;14.30;;
45198;SDS011;30941;46.422;18.772;2024-03-06T10:59:26;15.93;;;12.50;;
45198;SDS011;30941;46.422;18.772;2024-03-06T11:01:53;55.35;;;36.45;;
45198;SDS011;30941;46.422;18.772;2024-03-06T11:04:20;25.33;;;18.95;;
45198;SDS011;30941;46.422;18.772;2024-03-06T11:06:47;17.50;;;12.52;;
45198;SDS011;30941;46.422;18.772;2024-03-06T11:09:13;17.45;;;12.75;;
45198;SDS011;30941;46.422;18.772;2024-03-06T11:11:47;14.23;;;12.55;;
45198;SDS011;30941;46.422;18.772;2024-03-06T11:14:14;18.08;;;12.35;;
45198;SDS011;30941;46.422;18.772;2024-03-06T11:19:30;16.17;;;12.73;;
45198;SDS011;30941;46.422;18.772;2024-03-06T11:21:56;18.33;;;13.10;;
45198;SDS011;30941;46.422;18.772;2024-03-06T11:24:34;19.40;;;14.20;;
45198;SDS011;30941;46.422;18.772;2024-03-06T11:26:59;17.58;;;13.88;;
45198;SDS011;30941;46.422;18.772;2024-03-06T11:29:32;18.00;;;13.93;;
45198;SDS011;30941;46.422;18.772;2024-03-06T11:32:59;19.00;;;13.80;;
45198;SDS011;30941;46.422;18.772;2024-03-06T11:35:27;15.32;;;11.90;;
45198;SDS011;30941;46.422;18.772;2024-03-06T11:37:53;15.32;;;11.88;;
45198;SDS011;30941;46.422;18.772;2024-03-06T11:40:23;15.43;;;12.27;;
45198;SDS011;30941;46.422;18.772;2024-03-06T11:42:52;15.65;;;12.48;;
45198;SDS011;30941;46.422;18.772;2024-03-06T11:45:18;16.42;;;12.38;;
45198;SDS011;30941;46.422;18.772;2024-03-06T11:47:59;16.50;;;12.70;;
45198;SDS011;30941;46.422;18.772;2024-03-06T11:50:26;14.88;;;13.13;;
45198;SDS011;30941;46.422;18.772;2024-03-06T11:52:53;14.30;;;12.80;;
45198;SDS011;30941;46.422;18.772;2024-03-06T11:55:20;18.38;;;13.00;;
45198;SDS011;30941;46.422;18.772;2024-03-06T11:57:46;15.02;;;12.32;;
45198;SDS011;30941;46.422;18.772;2024-03-06T12:00:12;15.27;;;12.48;;
45198;SDS011;30941;46.422;18.772;2024-03-06T12:02:38;14.90;;;12.57;;
45198;SDS011;30941;46.422;18.772;2024-03-06T12:05:04;17.92;;;13.25;;
45198;SDS011;30941;46.422;18.772;2024-03-06T12:07:30;16.73;;;13.23;;
45198;SDS011;30941;46.422;18.772;2024-03-06T12:09:57;16.98;;;12.98;;
45198;SDS011;30941;46.422;18.772;2024-03-06T12:12:23;14.57;;;13.07;;
45198;SDS011;30941;46.422;18.772;2024-03-06T12:14:55;16.58;;;12.27;;
45198;SDS011;30941;46.422;18.772;2024-03-06T12:17:23;16.17;;;13.35;;
45198;SDS011;30941;46.422;18.772;2024-03-06T12:19:49;17.20;;;12.52;;
45198;SDS011;30941;46.422;18.772;2024-03-06T12:22:15;16.48;;;13.23;;
45198;SDS011;30941;46.422;18.772;2024-03-06T12:24:40;18.45;;;12.15;;
45198;SDS011;30941;46.422;18.772;2024-03-06T12:27:06;20.63;;;13.38;;
45198;SDS011;30941;46.422;18.772;2024-03-06T12:29:32;15.50;;;13.05;;
45198;SDS011;30941;46.422;18.772;2024-03-06T12:32:00;16.65;;;13.50;;
45198;SDS011;30941;46.422;18.772;2024-03-06T12:34:26;14.18;;;11.95;;
45198;SDS011;30941;46.422;18.772;2024-03-06T12:36:51;15.23;;;12.02;;
45198;SDS011;30941;46.422;18.772;2024-03-06T12:39:17;16.33;;;12.18;;
45198;SDS011;30941;46.422;18.772;2024-03-06T12:41:49;20.58;;;12.85;;
45198;SDS011;30941;46.422;18.772;2024-03-06T12:44:19;29.02;;;13.55;;
45198;SDS011;30941;46.422;18.772;2024-03-06T12:46:44;14.23;;;11.30;;
45198;SDS011;30941;46.422;18.772;2024-03-06T12:49:10;18.65;;;12.70;;
45198;SDS011;30941;46.422;18.772;2024-03-06T12:51:35;20.58;;;12.73;;
45198;SDS011;30941;46.422;18.772;2024-03-06T12:54:01;20.83;;;13.48;;
45198;SDS011;30941;46.422;18.772;2024-03-06T12:56:28;35.88;;;14.63;;
45198;SDS011;30941;46.422;18.772;2024-03-06T12:58:53;22.23;;;12.43;;
45198;SDS011;30941;46.422;18.772;2024-03-06T13:01:19;18.30;;;12.10;;
45198;SDS011;30941;46.422;18.772;2024-03-06T13:03:45;16.75;;;11.48;;
45198;SDS011;30941;46.422;18.772;2024-03-06T13:06:10;16.75;;;12.20;;
45198;SDS011;30941;46.422;18.772;2024-03-06T13:08:35;16.17;;;12.00;;
45198;SDS011;30941;46.422;18.772;2024-03-06T13:11:01;15.23;;;11.07;;
45198;SDS011;30941;46.422;18.772;2024-03-06T13:13:26;23.83;;;13.82;;
45198;SDS011;30941;46.422;18.772;2024-03-06T13:15:55;16.02;;;12.35;;
45198;SDS011;30941;46.422;18.772;2024-03-06T13:18:21;70.75;;;16.48;;
45198;SDS011;30941;46.422;18.772;2024-03-06T13:20:46;23.05;;;11.63;;
45198;SDS011;30941;46.422;18.772;2024-03-06T13:23:11;17.08;;;12.85;;
45198;SDS011;30941;46.422;18.772;2024-03-06T13:25:37;13.40;;;10.60;;
45198;SDS011;30941;46.422;18.772;2024-03-06T13:28:03;14.52;;;11.27;;
45198;SDS011;30941;46.422;18.772;2024-03-06T13:30:29;15.57;;;11.80;;
45198;SDS011;30941;46.422;18.772;2024-03-06T13:32:54;15.48;;;12.02;;
45198;SDS011;30941;46.422;18.772;2024-03-06T13:35:20;16.63;;;11.57;;
45198;SDS011;30941;46.422;18.772;2024-03-06T13:37:45;20.48;;;12.88;;
45198;SDS011;30941;46.422;18.772;2024-03-06T13:40:11;17.35;;;11.70;;
45198;SDS011;30941;46.422;18.772;2024-03-06T13:42:38;19.08;;;12.13;;
45198;SDS011;30941;46.422;18.772;2024-03-06T13:45:05;18.73;;;12.18;;
45198;SDS011;30941;46.422;18.772;2024-03-06T13:47:36;17.52;;;11.70;;
45198;SDS011;30941;46.422;18.772;2024-03-06T13:50:02;17.75;;;12.10;;
45198;SDS011;30941;46.422;18.772;2024-03-06T13:52:27;18.40;;;11.77;;
45198;SDS011;30941;46.422;18.772;2024-03-06T13:54:53;31.70;;;12.75;;
45198;SDS011;30941;46.422;18.772;2024-03-06T13:57:18;19.15;;;12.45;;
45198;SDS011;30941;46.422;18.772;2024-03-06T13:59:43;17.88;;;11.88;;
45198;SDS011;30941;46.422;18.772;2024-03-06T14:02:09;22.23;;;13.00;;
45198;SDS011;30941;46.422;18.772;2024-03-06T14:04:34;20.55;;;12.55;;
45198;SDS011;30941;46.422;18.772;2024-03-06T14:07:00;18.95;;;12.18;;